Airfield :
LOGIN :

Register | Disclaimer

   EN    FR    IT 

 










Legend :    VFR   Marginal VFR   IFR   Intensive IFR   Very Intensive IFR
Visi :
Ceiling :
>= 8 km
>= 3000ft
5 to 8 km
1000 to 3000 ft
1500m to 5 km
500 to 1000 ft
800 to 1500m
200 to 500 ft
< 800m
< 200 ft
Symbols :   Thunderstorms  Fog  Heavy snow  Heavy precipitations  Wind > 20 kt
SIGMETs :     Misc.  Thunderstorms  Icing  Turbulence  Mountain Waves  Volcanic Ashes







- Airport Elevation : 160 ft
- IATA code : LRT
- Download approach charts


LFRH - Lorient Lann Bihoue

CURRENT METAR :
  • 190900Z AUTO 06011KT CAVOK 04/M01 Q1013 NOSIG

EXPIRED METARs :
  • 190830Z AUTO 06008KT CAVOK 03/M01 Q1013 NOSIG
  • 190800Z AUTO 07007KT CAVOK 03/M01 Q1013 NOSIG
  • 190730Z AUTO 06011KT CAVOK 03/M01 Q1013 NOSIG
  • 190700Z AUTO 06012KT CAVOK 03/M01 Q1013 NOSIG
  • 190630Z AUTO 06016KT CAVOK 04/M00 Q1013 BECMG 06012G22KT

TAF TAF LFRH
Valid from the 19 at 06:00 until the 20 at 06:00 UTC


190500Z 1906/2006 06012G22KT CAVOK
BECMG 1920/1922 06010KT
BECMG 2000/2002 BKN012 BKN020
No reported NOTAMs for that airfield.



MET'MAP, your aeronautical weather chart ! - Copyright ORBIFLY December 2007 - Disclaimer

ORBIFLY MET'MAP TEAM :

Programming & Development : Alexandra Zaïnal
Concept & Development : Baudouin d'Aumeries
Co-Development & Prog : Marc-Olivier Méhu
Technical & hardware support : Manuel Goepfert

Contact : metmap@orbifly.com




SOURCES & CREDITS :

   NOAA